sensor_id;sensor_type;location;lat;lon;timestamp;pressure;altitude;pressure_sealevel;temperature;humidity
25869;BME280;13688;53.154;18.136;2022-10-15T00:04:39;100655.36;;;10.19;100.00
25869;BME280;13688;53.154;18.136;2022-10-15T00:10:01;100658.29;;;10.16;100.00
25869;BME280;13688;53.154;18.136;2022-10-15T00:15:23;100645.07;;;10.13;100.00
25869;BME280;13688;53.154;18.136;2022-10-15T00:20:46;100633.59;;;10.11;100.00
25869;BME280;13688;53.154;18.136;2022-10-15T00:26:23;100629.33;;;10.09;100.00
25869;BME280;13688;53.154;18.136;2022-10-15T00:31:46;100623.22;;;10.07;100.00
25869;BME280;13688;53.154;18.136;2022-10-15T00:37:09;100626.03;;;10.05;100.00
25869;BME280;13688;53.154;18.136;2022-10-15T00:42:31;100627.95;;;10.03;100.00
25869;BME280;13688;53.154;18.136;2022-10-15T00:47:54;100625.75;;;9.97;100.00
25869;BME280;13688;53.154;18.136;2022-10-15T00:53:16;100621.94;;;9.88;100.00
25869;BME280;13688;53.154;18.136;2022-10-15T00:58:39;100615.04;;;9.73;100.00
25869;BME280;13688;53.154;18.136;2022-10-15T01:04:02;100617.19;;;9.57;100.00
25869;BME280;13688;53.154;18.136;2022-10-15T01:09:28;100604.58;;;9.46;100.00
25869;BME280;13688;53.154;18.136;2022-10-15T01:15:04;100606.20;;;9.36;100.00
25869;BME280;13688;53.154;18.136;2022-10-15T01:21:08;100614.86;;;9.28;100.00
25869;BME280;13688;53.154;18.136;2022-10-15T01:26:59;100606.51;;;9.20;100.00
25869;BME280;13688;53.154;18.136;2022-10-15T01:38:00;100588.97;;;9.03;100.00
25869;BME280;13688;53.154;18.136;2022-10-15T01:43:31;100584.62;;;8.89;100.00
25869;BME280;13688;53.154;18.136;2022-10-15T01:49:01;100581.88;;;8.78;100.00
25869;BME280;13688;53.154;18.136;2022-10-15T01:54:27;100594.73;;;8.73;100.00
25869;BME280;13688;53.154;18.136;2022-10-15T01:59:50;100597.88;;;8.54;100.00
25869;BME280;13688;53.154;18.136;2022-10-15T02:05:16;100599.72;;;8.41;100.00
25869;BME280;13688;53.154;18.136;2022-10-15T02:10:54;100597.79;;;8.43;100.00
25869;BME280;13688;53.154;18.136;2022-10-15T02:21:53;100588.11;;;8.28;100.00
25869;BME280;13688;53.154;18.136;2022-10-15T02:27:25;100584.36;;;8.18;100.00
25869;BME280;13688;53.154;18.136;2022-10-15T02:33:00;100576.42;;;8.29;100.00
25869;BME280;13688;53.154;18.136;2022-10-15T02:38:24;100560.37;;;8.16;100.00
25869;BME280;13688;53.154;18.136;2022-10-15T02:43:46;100562.95;;;8.05;100.00
25869;BME280;13688;53.154;18.136;2022-10-15T02:49:09;100561.23;;;8.04;100.00
25869;BME280;13688;53.154;18.136;2022-10-15T02:54:32;100554.70;;;7.95;100.00
25869;BME280;13688;53.154;18.136;2022-10-15T02:59:54;100560.47;;;7.89;100.00
25869;BME280;13688;53.154;18.136;2022-10-15T03:05:18;100567.41;;;7.79;100.00
25869;BME280;13688;53.154;18.136;2022-10-15T03:10:41;100552.88;;;7.83;100.00
25869;BME280;13688;53.154;18.136;2022-10-15T03:16:06;100548.57;;;7.81;100.00
25869;BME280;13688;53.154;18.136;2022-10-15T03:21:29;100538.31;;;7.74;100.00
25869;BME280;13688;53.154;18.136;2022-10-15T03:26:52;100537.86;;;7.68;100.00
25869;BME280;13688;53.154;18.136;2022-10-15T03:32:14;100536.45;;;7.62;100.00
25869;BME280;13688;53.154;18.136;2022-10-15T03:37:38;100531.02;;;7.64;100.00
25869;BME280;13688;53.154;18.136;2022-10-15T03:43:00;100528.42;;;7.62;100.00
25869;BME280;13688;53.154;18.136;2022-10-15T03:48:23;100527.48;;;7.63;100.00
25869;BME280;13688;53.154;18.136;2022-10-15T03:53:46;100513.66;;;7.57;100.00
25869;BME280;13688;53.154;18.136;2022-10-15T03:59:08;100519.23;;;7.54;100.00
25869;BME280;13688;53.154;18.136;2022-10-15T04:04:30;100510.54;;;7.50;100.00
25869;BME280;13688;53.154;18.136;2022-10-15T04:09:52;100510.66;;;7.49;100.00
25869;BME280;13688;53.154;18.136;2022-10-15T04:15:15;100507.97;;;7.49;100.00
25869;BME280;13688;53.154;18.136;2022-10-15T04:20:38;100508.30;;;7.44;100.00
25869;BME280;13688;53.154;18.136;2022-10-15T04:26:02;100521.68;;;7.44;100.00
25869;BME280;13688;53.154;18.136;2022-10-15T04:31:24;100523.39;;;7.45;100.00
25869;BME280;13688;53.154;18.136;2022-10-15T04:36:46;100516.56;;;7.54;100.00
25869;BME280;13688;53.154;18.136;2022-10-15T04:42:09;100508.61;;;7.52;100.00
25869;BME280;13688;53.154;18.136;2022-10-15T04:47:31;100502.52;;;7.50;100.00
25869;BME280;13688;53.154;18.136;2022-10-15T04:52:53;100499.95;;;7.49;100.00
25869;BME280;13688;53.154;18.136;2022-10-15T04:58:15;100499.31;;;7.45;100.00
25869;BME280;13688;53.154;18.136;2022-10-15T05:03:40;100499.31;;;7.45;100.00
25869;BME280;13688;53.154;18.136;2022-10-15T05:09:04;100495.86;;;7.43;100.00
25869;BME280;13688;53.154;18.136;2022-10-15T05:14:26;100496.75;;;7.43;100.00
25869;BME280;13688;53.154;18.136;2022-10-15T05:19:50;100500.17;;;7.45;100.00
25869;BME280;13688;53.154;18.136;2022-10-15T05:25:13;100491.59;;;7.40;100.00
25869;BME280;13688;53.154;18.136;2022-10-15T05:30:36;100489.58;;;7.44;100.00
25869;BME280;13688;53.154;18.136;2022-10-15T05:41:35;100468.81;;;7.48;100.00
25869;BME280;13688;53.154;18.136;2022-10-15T05:46:58;100474.50;;;7.56;100.00
25869;BME280;13688;53.154;18.136;2022-10-15T05:52:21;100475.80;;;7.63;100.00
25869;BME280;13688;53.154;18.136;2022-10-15T05:57:43;100478.77;;;7.71;100.00
25869;BME280;13688;53.154;18.136;2022-10-15T06:03:09;100480.06;;;7.78;100.00
25869;BME280;13688;53.154;18.136;2022-10-15T06:08:30;100478.67;;;7.85;100.00
25869;BME280;13688;53.154;18.136;2022-10-15T06:13:53;100481.33;;;7.98;100.00
25869;BME280;13688;53.154;18.136;2022-10-15T06:19:16;100480.25;;;8.13;100.00
25869;BME280;13688;53.154;18.136;2022-10-15T06:24:38;100480.84;;;8.29;100.00
25869;BME280;13688;53.154;18.136;2022-10-15T06:30:00;100477.95;;;8.45;100.00
25869;BME280;13688;53.154;18.136;2022-10-15T06:35:24;100494.84;;;8.58;100.00
25869;BME280;13688;53.154;18.136;2022-10-15T06:40:49;100484.89;;;8.60;100.00
25869;BME280;13688;53.154;18.136;2022-10-15T06:46:11;100484.72;;;8.75;100.00
25869;BME280;13688;53.154;18.136;2022-10-15T06:51:33;100481.59;;;8.81;100.00
25869;BME280;13688;53.154;18.136;2022-10-15T06:56:55;100488.09;;;8.89;100.00
25869;BME280;13688;53.154;18.136;2022-10-15T07:02:18;100488.15;;;9.01;100.00
25869;BME280;13688;53.154;18.136;2022-10-15T07:07:40;100481.85;;;9.13;100.00
25869;BME280;13688;53.154;18.136;2022-10-15T07:13:09;100485.55;;;9.23;100.00
25869;BME280;13688;53.154;18.136;2022-10-15T07:18:31;100484.03;;;9.43;100.00
25869;BME280;13688;53.154;18.136;2022-10-15T07:23:54;100486.73;;;9.54;100.00
25869;BME280;13688;53.154;18.136;2022-10-15T07:29:17;100485.09;;;9.75;100.00
25869;BME280;13688;53.154;18.136;2022-10-15T07:34:40;100486.56;;;9.91;100.00
25869;BME280;13688;53.154;18.136;2022-10-15T07:40:02;100489.97;;;9.93;100.00
25869;BME280;13688;53.154;18.136;2022-10-15T07:45:25;100491.72;;;10.05;100.00
25869;BME280;13688;53.154;18.136;2022-10-15T07:50:59;100489.25;;;10.13;100.00
25869;BME280;13688;53.154;18.136;2022-10-15T07:56:20;100491.14;;;10.24;100.00
25869;BME280;13688;53.154;18.136;2022-10-15T08:01:42;100488.16;;;10.49;100.00
25869;BME280;13688;53.154;18.136;2022-10-15T08:07:04;100490.31;;;10.78;100.00
25869;BME280;13688;53.154;18.136;2022-10-15T08:12:27;100504.77;;;11.09;100.00
25869;BME280;13688;53.154;18.136;2022-10-15T08:17:49;100491.47;;;11.28;100.00
25869;BME280;13688;53.154;18.136;2022-10-15T08:23:14;100489.13;;;11.56;98.21
25869;BME280;13688;53.154;18.136;2022-10-15T08:28:38;100488.41;;;11.95;94.09
25869;BME280;13688;53.154;18.136;2022-10-15T08:34:01;100492.75;;;12.08;89.46
25869;BME280;13688;53.154;18.136;2022-10-15T08:39:24;100481.34;;;12.35;87.57
25869;BME280;13688;53.154;18.136;2022-10-15T08:44:52;100484.05;;;12.35;84.99
25869;BME280;13688;53.154;18.136;2022-10-15T08:50:47;100480.25;;;12.37;84.26
25869;BME280;13688;53.154;18.136;2022-10-15T08:56:26;100472.47;;;12.53;83.38
25869;BME280;13688;53.154;18.136;2022-10-15T09:01:57;100476.05;;;12.64;82.05
25869;BME280;13688;53.154;18.136;2022-10-15T09:13:17;100475.68;;;12.87;80.66
25869;BME280;13688;53.154;18.136;2022-10-15T09:18:44;100478.94;;;12.91;79.69
25869;BME280;13688;53.154;18.136;2022-10-15T09:24:08;100483.48;;;12.90;79.37
25869;BME280;13688;53.154;18.136;2022-10-15T09:29:56;100482.34;;;12.93;79.71
25869;BME280;13688;53.154;18.136;2022-10-15T09:35:40;100482.79;;;12.98;79.83
25869;BME280;13688;53.154;18.136;2022-10-15T09:47:00;100491.34;;;13.13;78.78
25869;BME280;13688;53.154;18.136;2022-10-15T09:58:29;100483.69;;;13.37;77.97
25869;BME280;13688;53.154;18.136;2022-10-15T10:04:16;100482.53;;;13.50;77.72
25869;BME280;13688;53.154;18.136;2022-10-15T10:09:51;100492.94;;;13.35;76.76
25869;BME280;13688;53.154;18.136;2022-10-15T10:20:58;100492.00;;;12.76;79.69
25869;BME280;13688;53.154;18.136;2022-10-15T10:26:23;100497.59;;;12.54;83.91
25869;BME280;13688;53.154;18.136;2022-10-15T10:31:47;100486.78;;;12.44;87.89
25869;BME280;13688;53.154;18.136;2022-10-15T10:37:10;100486.92;;;12.43;90.30
25869;BME280;13688;53.154;18.136;2022-10-15T10:42:38;100495.44;;;12.38;91.10
25869;BME280;13688;53.154;18.136;2022-10-15T10:48:16;100499.55;;;12.42;92.49
25869;BME280;13688;53.154;18.136;2022-10-15T10:54:23;100493.22;;;12.63;93.31
25869;BME280;13688;53.154;18.136;2022-10-15T10:59:08;100482.62;;;12.80;92.71
25869;BME280;13688;53.154;18.136;2022-10-15T11:04:30;100483.23;;;13.03;90.58
25869;BME280;13688;53.154;18.136;2022-10-15T11:27:15;100474.92;;;13.92;79.37
25869;BME280;13688;53.154;18.136;2022-10-15T11:32:57;100477.60;;;14.01;79.28
25869;BME280;13688;53.154;18.136;2022-10-15T11:50:55;100479.67;;;15.00;76.71
25869;BME280;13688;53.154;18.136;2022-10-15T11:56:31;100474.10;;;15.01;75.35
25869;BME280;13688;53.154;18.136;2022-10-15T12:01:59;100475.36;;;15.07;73.59
25869;BME280;13688;53.154;18.136;2022-10-15T12:07:29;100476.13;;;15.17;73.77
25869;BME280;13688;53.154;18.136;2022-10-15T12:13:17;100476.81;;;15.01;72.60
25869;BME280;13688;53.154;18.136;2022-10-15T12:18:57;100467.28;;;15.33;73.10
25869;BME280;13688;53.154;18.136;2022-10-15T12:30:20;100466.75;;;15.11;74.26
25869;BME280;13688;53.154;18.136;2022-10-15T12:35:54;100469.38;;;15.39;73.11
25869;BME280;13688;53.154;18.136;2022-10-15T12:41:19;100465.93;;;15.72;71.88
25869;BME280;13688;53.154;18.136;2022-10-15T12:46:56;100465.08;;;15.72;69.76
25869;BME280;13688;53.154;18.136;2022-10-15T12:58:45;100470.27;;;15.83;70.28
25869;BME280;13688;53.154;18.136;2022-10-15T13:04:09;100464.02;;;15.91;68.87
25869;BME280;13688;53.154;18.136;2022-10-15T13:09:35;100472.75;;;15.59;70.11
25869;BME280;13688;53.154;18.136;2022-10-15T13:15:01;100463.56;;;15.34;70.68
25869;BME280;13688;53.154;18.136;2022-10-15T13:20:42;100468.38;;;15.22;72.26
25869;BME280;13688;53.154;18.136;2022-10-15T13:26:25;100466.36;;;15.24;72.81
25869;BME280;13688;53.154;18.136;2022-10-15T13:31:49;100471.08;;;15.22;73.09
25869;BME280;13688;53.154;18.136;2022-10-15T13:37:16;100466.36;;;15.24;73.24
25869;BME280;13688;53.154;18.136;2022-10-15T13:42:40;100459.03;;;15.16;73.60
25869;BME280;13688;53.154;18.136;2022-10-15T13:48:20;100453.82;;;15.23;73.38
25869;BME280;13688;53.154;18.136;2022-10-15T13:53:47;100464.13;;;15.20;72.90
25869;BME280;13688;53.154;18.136;2022-10-15T13:59:14;100460.25;;;15.22;72.71
25869;BME280;13688;53.154;18.136;2022-10-15T14:04:37;100461.42;;;15.20;72.82
25869;BME280;13688;53.154;18.136;2022-10-15T14:09:59;100454.22;;;15.28;72.92
25869;BME280;13688;53.154;18.136;2022-10-15T14:15:49;100456.85;;;15.20;73.20
25869;BME280;13688;53.154;18.136;2022-10-15T14:21:21;100462.03;;;15.13;73.57
25869;BME280;13688;53.154;18.136;2022-10-15T14:26:44;100464.20;;;15.10;74.25
25869;BME280;13688;53.154;18.136;2022-10-15T14:32:26;100467.23;;;15.07;74.77
25869;BME280;13688;53.154;18.136;2022-10-15T14:43:35;100470.86;;;14.98;75.98
25869;BME280;13688;53.154;18.136;2022-10-15T14:48:58;100465.20;;;14.91;76.46
25869;BME280;13688;53.154;18.136;2022-10-15T14:54:30;100465.67;;;14.86;76.77
25869;BME280;13688;53.154;18.136;2022-10-15T14:59:54;100466.28;;;14.80;77.12
25869;BME280;13688;53.154;18.136;2022-10-15T15:05:20;100465.86;;;14.75;77.60
25869;BME280;13688;53.154;18.136;2022-10-15T15:10:45;100464.33;;;14.73;77.84
25869;BME280;13688;53.154;18.136;2022-10-15T15:16:10;100479.02;;;14.70;78.11
25869;BME280;13688;53.154;18.136;2022-10-15T15:21:33;100479.33;;;14.67;78.21
25869;BME280;13688;53.154;18.136;2022-10-15T15:26:56;100483.73;;;14.68;78.15
25869;BME280;13688;53.154;18.136;2022-10-15T15:32:18;100487.58;;;14.66;78.14
25869;BME280;13688;53.154;18.136;2022-10-15T15:37:41;100485.03;;;14.64;78.00
25869;BME280;13688;53.154;18.136;2022-10-15T15:43:04;100484.17;;;14.64;77.87
25869;BME280;13688;53.154;18.136;2022-10-15T15:48:31;100481.63;;;14.62;77.86
25869;BME280;13688;53.154;18.136;2022-10-15T15:53:53;100477.12;;;14.53;78.25
25869;BME280;13688;53.154;18.136;2022-10-15T15:59:18;100478.13;;;14.52;78.50
25869;BME280;13688;53.154;18.136;2022-10-15T16:04:41;100469.59;;;14.47;79.55
25869;BME280;13688;53.154;18.136;2022-10-15T16:10:04;100477.72;;;14.37;79.71
25869;BME280;13688;53.154;18.136;2022-10-15T16:15:29;100496.58;;;14.29;80.17
25869;BME280;13688;53.154;18.136;2022-10-15T16:20:52;100511.53;;;14.23;80.76
25869;BME280;13688;53.154;18.136;2022-10-15T16:26:15;100509.95;;;14.30;80.87
25869;BME280;13688;53.154;18.136;2022-10-15T16:31:38;100525.48;;;14.28;81.09
25869;BME280;13688;53.154;18.136;2022-10-15T16:37:00;100531.28;;;14.33;81.23
25869;BME280;13688;53.154;18.136;2022-10-15T16:42:23;100540.09;;;14.36;81.25
25869;BME280;13688;53.154;18.136;2022-10-15T16:47:46;100542.09;;;14.33;81.43
25869;BME280;13688;53.154;18.136;2022-10-15T16:53:09;100539.00;;;14.28;81.76
25869;BME280;13688;53.154;18.136;2022-10-15T16:58:32;100544.53;;;14.27;82.24
25869;BME280;13688;53.154;18.136;2022-10-15T17:03:56;100546.11;;;14.29;82.36
25869;BME280;13688;53.154;18.136;2022-10-15T17:09:22;100557.05;;;14.28;82.65
25869;BME280;13688;53.154;18.136;2022-10-15T17:14:47;100563.77;;;14.24;83.01
25869;BME280;13688;53.154;18.136;2022-10-15T17:20:14;100564.06;;;14.21;83.47
25869;BME280;13688;53.154;18.136;2022-10-15T17:25:36;100563.48;;;14.17;83.99
25869;BME280;13688;53.154;18.136;2022-10-15T17:31:03;100572.59;;;14.16;84.30
25869;BME280;13688;53.154;18.136;2022-10-15T17:36:28;100573.45;;;14.17;84.52
25869;BME280;13688;53.154;18.136;2022-10-15T17:41:55;100574.45;;;14.16;84.68
25869;BME280;13688;53.154;18.136;2022-10-15T17:47:17;100572.34;;;14.10;84.96
25869;BME280;13688;53.154;18.136;2022-10-15T17:52:41;100581.03;;;14.03;85.61
25869;BME280;13688;53.154;18.136;2022-10-15T17:58:05;100586.73;;;14.00;86.24
25869;BME280;13688;53.154;18.136;2022-10-15T18:03:30;100586.16;;;13.97;86.80
25869;BME280;13688;53.154;18.136;2022-10-15T18:08:53;100582.05;;;13.93;87.33
25869;BME280;13688;53.154;18.136;2022-10-15T18:14:16;100594.56;;;13.94;88.16
25869;BME280;13688;53.154;18.136;2022-10-15T18:19:39;100599.11;;;13.93;88.18
25869;BME280;13688;53.154;18.136;2022-10-15T18:25:01;100595.86;;;13.90;88.83
25869;BME280;13688;53.154;18.136;2022-10-15T18:30:24;100593.27;;;13.88;89.34
25869;BME280;13688;53.154;18.136;2022-10-15T18:35:47;100599.97;;;13.84;90.02
25869;BME280;13688;53.154;18.136;2022-10-15T18:41:16;100602.13;;;13.81;90.87
25869;BME280;13688;53.154;18.136;2022-10-15T18:46:38;100605.79;;;13.80;91.56
25869;BME280;13688;53.154;18.136;2022-10-15T18:52:00;100610.23;;;13.81;92.21
25869;BME280;13688;53.154;18.136;2022-10-15T18:57:25;100618.45;;;13.79;92.56
25869;BME280;13688;53.154;18.136;2022-10-15T19:02:48;100620.74;;;13.74;93.17
25869;BME280;13688;53.154;18.136;2022-10-15T19:08:10;100623.59;;;13.72;93.96
25869;BME280;13688;53.154;18.136;2022-10-15T19:13:33;100630.25;;;13.68;94.45
25869;BME280;13688;53.154;18.136;2022-10-15T19:18:55;100628.41;;;13.69;95.09
25869;BME280;13688;53.154;18.136;2022-10-15T19:24:19;100633.25;;;13.65;95.68
25869;BME280;13688;53.154;18.136;2022-10-15T19:29:42;100635.80;;;13.67;96.00
25869;BME280;13688;53.154;18.136;2022-10-15T19:35:05;100633.81;;;13.69;96.08
25869;BME280;13688;53.154;18.136;2022-10-15T19:40:27;100643.77;;;13.68;96.08
25869;BME280;13688;53.154;18.136;2022-10-15T19:45:55;100646.20;;;13.71;95.91
25869;BME280;13688;53.154;18.136;2022-10-15T19:51:18;100639.22;;;13.79;95.15
25869;BME280;13688;53.154;18.136;2022-10-15T19:56:41;100645.36;;;13.81;94.37
25869;BME280;13688;53.154;18.136;2022-10-15T20:02:03;100657.14;;;13.80;94.39
25869;BME280;13688;53.154;18.136;2022-10-15T20:07:27;100658.58;;;13.84;94.63
25869;BME280;13688;53.154;18.136;2022-10-15T20:12:49;100655.58;;;13.77;95.97
25869;BME280;13688;53.154;18.136;2022-10-15T20:18:11;100662.12;;;13.65;99.86
25869;BME280;13688;53.154;18.136;2022-10-15T20:23:35;100669.07;;;13.58;100.00
25869;BME280;13688;53.154;18.136;2022-10-15T20:28:58;100669.50;;;13.53;100.00
25869;BME280;13688;53.154;18.136;2022-10-15T20:34:23;100669.91;;;13.49;100.00
25869;BME280;13688;53.154;18.136;2022-10-15T20:39:49;100675.45;;;13.47;100.00
25869;BME280;13688;53.154;18.136;2022-10-15T20:45:12;100680.28;;;13.43;100.00
25869;BME280;13688;53.154;18.136;2022-10-15T20:50:37;100670.02;;;13.37;100.00
25869;BME280;13688;53.154;18.136;2022-10-15T20:55:59;100681.83;;;13.36;100.00
25869;BME280;13688;53.154;18.136;2022-10-15T21:01:22;100670.45;;;13.33;100.00
25869;BME280;13688;53.154;18.136;2022-10-15T21:06:44;100674.01;;;13.33;100.00
25869;BME280;13688;53.154;18.136;2022-10-15T21:12:07;100685.94;;;13.40;100.00
25869;BME280;13688;53.154;18.136;2022-10-15T21:17:29;100683.84;;;13.44;100.00
25869;BME280;13688;53.154;18.136;2022-10-15T21:22:51;100689.66;;;13.49;100.00
25869;BME280;13688;53.154;18.136;2022-10-15T21:28:14;100684.57;;;13.56;100.00
25869;BME280;13688;53.154;18.136;2022-10-15T21:33:36;100681.73;;;13.57;100.00
25869;BME280;13688;53.154;18.136;2022-10-15T21:39:02;100677.47;;;13.55;100.00
25869;BME280;13688;53.154;18.136;2022-10-15T21:44:25;100686.27;;;13.57;100.00
25869;BME280;13688;53.154;18.136;2022-10-15T21:49:47;100692.38;;;13.59;100.00
25869;BME280;13688;53.154;18.136;2022-10-15T21:55:09;100700.23;;;13.62;100.00
25869;BME280;13688;53.154;18.136;2022-10-15T22:00:33;100711.89;;;13.62;100.00
25869;BME280;13688;53.154;18.136;2022-10-15T22:05:57;100710.45;;;13.58;100.00
25869;BME280;13688;53.154;18.136;2022-10-15T22:11:28;100720.40;;;13.58;100.00
25869;BME280;13688;53.154;18.136;2022-10-15T22:16:52;100723.10;;;13.58;100.00
25869;BME280;13688;53.154;18.136;2022-10-15T22:22:14;100722.25;;;13.57;100.00
25869;BME280;13688;53.154;18.136;2022-10-15T22:27:37;100736.35;;;13.61;99.88
25869;BME280;13688;53.154;18.136;2022-10-15T22:32:59;100729.10;;;13.61;99.26
25869;BME280;13688;53.154;18.136;2022-10-15T22:38:22;100742.61;;;13.61;98.85
25869;BME280;13688;53.154;18.136;2022-10-15T22:43:45;100743.03;;;13.66;98.09
25869;BME280;13688;53.154;18.136;2022-10-15T22:49:07;100741.64;;;13.72;96.71
25869;BME280;13688;53.154;18.136;2022-10-15T22:54:32;100734.64;;;13.69;96.14
25869;BME280;13688;53.154;18.136;2022-10-15T22:59:56;100743.48;;;13.71;95.72
25869;BME280;13688;53.154;18.136;2022-10-15T23:05:18;100747.04;;;13.72;94.66
25869;BME280;13688;53.154;18.136;2022-10-15T23:10:40;100753.44;;;13.71;94.12
25869;BME280;13688;53.154;18.136;2022-10-15T23:16:20;100773.32;;;13.70;94.03
25869;BME280;13688;53.154;18.136;2022-10-15T23:21:53;100782.17;;;13.72;93.52
25869;BME280;13688;53.154;18.136;2022-10-15T23:27:17;100781.17;;;13.73;92.87
25869;BME280;13688;53.154;18.136;2022-10-15T23:32:39;100775.06;;;13.71;92.77
25869;BME280;13688;53.154;18.136;2022-10-15T23:38:01;100771.33;;;13.62;92.89
25869;BME280;13688;53.154;18.136;2022-10-15T23:43:24;100755.34;;;13.50;93.40
25869;BME280;13688;53.154;18.136;2022-10-15T23:48:46;100760.81;;;13.29;94.59
25869;BME280;13688;53.154;18.136;2022-10-15T23:54:11;100758.93;;;13.20;96.28
25869;BME280;13688;53.154;18.136;2022-10-15T23:59:34;100756.66;;;12.94;97.72
